Time;durP1;ratioP1;P1;durP2;ratioP2;P2;SDS_P1;SDS_P2;PMS_P1;PMS_P2;Temp;Humidity;BMP_temperature;BMP_pressure;BME280_temperature;BME280_humidity;BME280_pressure;Samples;Min_cycle;Max_cycle;Signal;HPM_P1;HPM_P2
2021/01/05 00:00:04;;;;;;;;;;;;;;;;;;4994352;28;19926;-61
2021/01/05 00:02:30;;;;;;;;;;;;;;;;;;4994221;28;19928;-61
2021/01/05 00:04:56;;;;;;;;;;;;;;;;;;4994614;28;19920;-61
2021/01/05 00:07:21;;;;;;;;;;;;;;;;;;4976804;28;19954;-61
2021/01/05 00:09:48;;;;;;;;;;;;;;;;;;4994274;28;19986;-61
2021/01/05 00:12:14;;;;;;;;;;;;;;;;;;4994137;28;20333;-60
2021/01/05 00:14:40;;;;;;;;;;;;;;;;;;4994313;28;19929;-61
2021/01/05 00:17:06;;;;;;;;;;;;;;;;;;4994298;28;19922;-61
2021/01/05 00:19:32;;;;;;;;;;;;;;;;;;4994547;28;19967;-61
2021/01/05 00:21:58;;;;;;;;;;;;;;;;;;4994690;28;19930;-61
2021/01/05 00:24:24;;;;;;;;;;;;;;;;;;4994358;28;19937;-61
2021/01/05 00:26:50;;;;;;;;;;;;;;;;;;4995478;28;20409;-61
2021/01/05 00:29:16;;;;;;;;;;;;;;;;;;4997915;28;19920;-61
2021/01/05 00:31:41;;;;;;;;;;;;;;;;;;4998286;28;19923;-61
2021/01/05 00:34:08;;;;;;;;;;;;;;;;;;4998116;28;19925;-61
2021/01/05 00:36:33;;;;;;;;;;;;;;;;;;4998137;28;19960;-61
2021/01/05 00:38:59;;;;;;;;;;;;;;;;;;4997801;28;19969;-61
2021/01/05 00:41:25;;;;;;;;;;;;;;;;;;4997982;28;19928;-61
2021/01/05 00:43:51;;;;;;;;;;;;;;;;;;4997676;28;20339;-61
2021/01/05 00:46:17;;;;;;;;;;;;;;;;;;4997596;28;20001;-61
2021/01/05 00:48:43;;;;;;;;;;;;;;;;;;4997631;28;19963;-62
2021/01/05 00:51:09;;;;;;;;;;;;;;;;;;4997534;28;19913;-61
2021/01/05 00:53:35;;;;;;;;;;;;;;;;;;4997469;28;20264;-61
2021/01/05 00:56:01;;;;;;;;;;;;;;;;;;4997818;28;19926;-60
2021/01/05 00:58:27;;;;;;;;;;;;;;;;;;4997325;28;19922;-61
2021/01/05 01:00:53;;;;;;;;;;;;;;;;;;4997624;28;19964;-61
2021/01/05 01:03:19;;;;;;;;;;;;;;;;;;4997342;28;19922;-61
2021/01/05 01:05:45;;;;;;;;;;;;;;;;;;4997270;28;19919;-61
2021/01/05 01:08:11;;;;;;;;;;;;;;;;;;4997552;28;19920;-61
2021/01/05 01:10:38;;;;;;;;;;;;;;;;;;4997126;28;20338;-61
2021/01/05 01:13:04;;;;;;;;;;;;;;;;;;4997471;28;19968;-61
2021/01/05 01:15:30;;;;;;;;;;;;;;;;;;4997026;28;20285;-61
2021/01/05 01:17:56;;;;;;;;;;;;;;;;;;4997027;28;20292;-61
2021/01/05 01:20:22;;;;;;;;;;;;;;;;;;4997055;28;19910;-60
2021/01/05 01:22:48;;;;;;;;;;;;;;;;;;4997230;28;19969;-61
2021/01/05 01:25:14;;;;;;;;;;;;;;;;;;4997149;28;20389;-61
2021/01/05 01:27:40;;;;;;;;;;;;;;;;;;4996868;28;19959;-61
2021/01/05 01:30:06;;;;;;;;;;;;;;;;;;4997096;28;19956;-61
2021/01/05 01:32:33;;;;;;;;;;;;;;;;;;4996737;28;19923;-61
2021/01/05 01:34:59;;;;;;;;;;;;;;;;;;4996764;28;19924;-61
2021/01/05 01:37:25;;;;;;;;;;;;;;;;;;4996291;28;19921;-61
2021/01/05 01:39:50;;;;;;;;;;;;;;;;;;4996143;28;19928;-61
2021/01/05 01:42:16;;;;;;;;;;;;;;;;;;4996671;28;19949;-61
2021/01/05 01:44:42;;;;;;;;;;;;;;;;;;4996415;28;19920;-61
2021/01/05 01:47:08;;;;;;;;;;;;;;;;;;4996855;28;19974;-61
2021/01/05 01:49:34;;;;;;;;;;;;;;;;;;4996635;28;19946;-60
2021/01/05 01:52:00;;;;;;;;;;;;;;;;;;4996551;28;19906;-61
2021/01/05 01:54:26;;;;;;;;;;;;;;;;;;4996506;28;19929;-60
2021/01/05 01:56:52;;;;;;;;;;;;;;;;;;4996660;28;19920;-61
2021/01/05 01:59:18;;;;;;;;;;;;;;;;;;4996375;28;20394;-61
2021/01/05 02:01:44;;;;;;;;;;;;;;;;;;4996207;28;20021;-61
2021/01/05 02:04:10;;;;;;;;;;;;;;;;;;4996364;28;19918;-61
2021/01/05 02:06:36;;;;;;;;;;;;;;;;;;4996223;28;19926;-61
2021/01/05 02:09:02;;;;;;;;;;;;;;;;;;4995996;28;19925;-61
2021/01/05 02:11:28;;;;;;;;;;;;;;;;;;4995886;28;20296;-60
2021/01/05 02:13:54;;;;;;;;;;;;;;;;;;4996062;28;19920;-60
2021/01/05 02:16:20;;;;;;;;;;;;;;;;;;4996161;28;19961;-61
2021/01/05 02:18:46;;;;;;;;;;;;;;;;;;4996240;28;19925;-61
2021/01/05 02:21:12;;;;;;;;;;;;;;;;;;4995793;28;19928;-60
2021/01/05 02:23:38;;;;;;;;;;;;;;;;;;4996173;28;20030;-60
2021/01/05 02:26:04;;;;;;;;;;;;;;;;;;4995973;28;19958;-61
2021/01/05 02:28:30;;;;;;;;;;;;;;;;;;4995792;28;19922;-61
2021/01/05 02:30:56;;;;;;;;;;;;;;;;;;4995810;28;19948;-60
2021/01/05 02:33:22;;;;;;;;;;;;;;;;;;4995739;28;19968;-61
2021/01/05 02:35:48;;;;;;;;;;;;;;;;;;4995536;28;20354;-61
2021/01/05 02:38:14;;;;;;;;;;;;;;;;;;4995657;28;19920;-60
2021/01/05 02:40:40;;;;;;;;;;;;;;;;;;4995423;28;19932;-60
2021/01/05 02:43:06;;;;;;;;;;;;;;;;;;4995517;28;19924;-61
2021/01/05 02:45:32;;;;;;;;;;;;;;;;;;4995419;28;19953;-61
2021/01/05 02:47:58;;;;;;;;;;;;;;;;;;4995363;28;20397;-61
2021/01/05 02:50:24;;;;;;;;;;;;;;;;;;4995169;28;19944;-61
2021/01/05 02:52:50;;;;;;;;;;;;;;;;;;4995279;28;19922;-59
2021/01/05 02:55:16;;;;;;;;;;;;;;;;;;4995342;28;19921;-61
2021/01/05 02:57:42;;;;;;;;;;;;;;;;;;4995493;28;19933;-61
2021/01/05 03:00:08;;;;;;;;;;;;;;;;;;4978432;28;20382;-61
2021/01/05 03:02:34;;;;;;;;;;;;;;;;;;4977616;28;20008;-61
2021/01/05 03:05:00;;;;;;;;;;;;;;;;;;4995276;28;19946;-61
2021/01/05 03:07:26;;;;;;;;;;;;;;;;;;4994828;28;19984;-61
2021/01/05 03:09:52;;;;;;;;;;;;;;;;;;4995242;28;19952;-60
2021/01/05 03:12:18;;;;;;;;;;;;;;;;;;4994883;28;19905;-61
2021/01/05 03:14:44;;;;;;;;;;;;;;;;;;4994976;28;19943;-62
2021/01/05 03:17:09;;;;;;;;;;;;;;;;;;4994806;28;19923;-61
2021/01/05 03:19:36;;;;;;;;;;;;;;;;;;4995174;28;19999;-61
2021/01/05 03:22:01;;;;;;;;;;;;;;;;;;4994700;28;19967;-61
2021/01/05 03:24:27;;;;;;;;;;;;;;;;;;4994663;28;19938;-60
2021/01/05 03:26:53;;;;;;;;;;;;;;;;;;4994964;28;19931;-61
2021/01/05 03:29:20;;;;;;;;;;;;;;;;;;4994960;28;19978;-61
2021/01/05 03:31:46;;;;;;;;;;;;;;;;;;4994524;28;20375;-60
2021/01/05 03:34:12;;;;;;;;;;;;;;;;;;4994612;28;19976;-61
2021/01/05 03:36:38;;;;;;;;;;;;;;;;;;4994621;28;19942;-61
2021/01/05 03:39:04;;;;;;;;;;;;;;;;;;4994937;28;19928;-61
2021/01/05 03:41:30;;;;;;;;;;;;;;;;;;4994475;28;20420;-61
2021/01/05 03:43:55;;;;;;;;;;;;;;;;;;4994818;28;19944;-61
2021/01/05 03:46:22;;;;;;;;;;;;;;;;;;4994464;28;20054;-61
2021/01/05 03:48:48;;;;;;;;;;;;;;;;;;4994489;28;19953;-61
2021/01/05 03:51:13;;;;;;;;;;;;;;;;;;4994742;28;19992;-61
2021/01/05 03:53:39;;;;;;;;;;;;;;;;;;4994331;28;19916;-61
2021/01/05 03:56:07;;;;;;;;;;;;;;;;;;4994371;28;20268;-61
2021/01/05 03:58:33;;;;;;;;;;;;;;;;;;4994160;28;19930;-60
2021/01/05 04:00:59;;;;;;;;;;;;;;;;;;4994413;28;19922;-60
2021/01/05 04:03:25;;;;;;;;;;;;;;;;;;4998329;28;19930;-61
2021/01/05 04:05:51;;;;;;;;;;;;;;;;;;4998885;28;19921;-60
2021/01/05 04:08:17;;;;;;;;;;;;;;;;;;4998284;28;19924;-61
2021/01/05 04:10:43;;;;;;;;;;;;;;;;;;4998252;28;19944;-61
2021/01/05 04:13:09;;;;;;;;;;;;;;;;;;4998510;28;19920;-61
2021/01/05 04:15:35;;;;;;;;;;;;;;;;;;4998298;28;19921;-61
2021/01/05 04:18:01;;;;;;;;;;;;;;;;;;4998161;28;19920;-61
2021/01/05 04:20:27;;;;;;;;;;;;;;;;;;4998388;28;19909;-61
2021/01/05 04:22:53;;;;;;;;;;;;;;;;;;4998376;28;19934;-61
2021/01/05 04:25:19;;;;;;;;;;;;;;;;;;4997485;28;20277;-61
2021/01/05 04:27:45;;;;;;;;;;;;;;;;;;4998066;28;19921;-61
2021/01/05 04:30:11;;;;;;;;;;;;;;;;;;4998041;28;20012;-61
2021/01/05 04:32:36;;;;;;;;;;;;;;;;;;4998240;28;20374;-61
2021/01/05 04:35:02;;;;;;;;;;;;;;;;;;4997967;28;19939;-61
2021/01/05 04:37:28;;;;;;;;;;;;;;;;;;4997751;28;19945;-61
2021/01/05 04:39:54;;;;;;;;;;;;;;;;;;4997965;28;19927;-61
2021/01/05 04:42:20;;;;;;;;;;;;;;;;;;4997741;28;20440;-61
2021/01/05 04:44:46;;;;;;;;;;;;;;;;;;4997205;28;19973;-61
2021/01/05 04:47:12;;;;;;;;;;;;;;;;;;4997836;28;19924;-61
2021/01/05 04:49:38;;;;;;;;;;;;;;;;;;4997727;28;19948;-61
2021/01/05 04:52:04;;;;;;;;;;;;;;;;;;4997570;28;19944;-61
2021/01/05 04:54:30;;;;;;;;;;;;;;;;;;4997319;28;20013;-61
2021/01/05 04:56:56;;;;;;;;;;;;;;;;;;4997494;28;19974;-61
2021/01/05 04:59:22;;;;;;;;;;;;;;;;;;4997730;28;19920;-60
2021/01/05 05:01:48;;;;;;;;;;;;;;;;;;4997362;28;20305;-61
2021/01/05 05:04:15;;;;;;;;;;;;;;;;;;4997629;28;19924;-61
2021/01/05 05:06:41;;;;;;;;;;;;;;;;;;4997644;28;20008;-61
2021/01/05 05:09:07;;;;;;;;;;;;;;;;;;4997313;28;19920;-60
2021/01/05 05:11:33;;;;;;;;;;;;;;;;;;4997128;28;20401;-61
2021/01/05 05:14:00;;;;;;;;;;;;;;;;;;4996864;28;19921;-60
2021/01/05 05:16:26;;;;;;;;;;;;;;;;;;4997169;28;20019;-61
2021/01/05 05:18:52;;;;;;;;;;;;;;;;;;4997373;28;20000;-60
2021/01/05 05:21:18;;;;;;;;;;;;;;;;;;4996900;28;20407;-60
2021/01/05 05:23:44;;;;;;;;;;;;;;;;;;4996929;28;19938;-60
2021/01/05 05:26:10;;;;;;;;;;;;;;;;;;4996952;28;19953;-61
2021/01/05 05:28:36;;;;;;;;;;;;;;;;;;4996955;28;20354;-60
2021/01/05 05:31:02;;;;;;;;;;;;;;;;;;4996703;28;20037;-60
2021/01/05 05:33:28;;;;;;;;;;;;;;;;;;4997128;28;19920;-61
2021/01/05 05:35:54;;;;;;;;;;;;;;;;;;4996720;28;19945;-61
2021/01/05 05:38:20;;;;;;;;;;;;;;;;;;4996729;28;19965;-61
2021/01/05 05:40:46;;;;;;;;;;;;;;;;;;4996868;28;19932;-61
2021/01/05 05:43:12;;;;;;;;;;;;;;;;;;4996963;28;20415;-61
2021/01/05 05:45:38;;;;;;;;;;;;;;;;;;4996734;28;20096;-61
2021/01/05 05:48:04;;;;;;;;;;;;;;;;;;4996836;28;19929;-61
2021/01/05 05:50:30;;;;;;;;;;;;;;;;;;4996394;28;19950;-61
2021/01/05 05:52:56;;;;;;;;;;;;;;;;;;4996511;28;19943;-61
2021/01/05 05:55:21;;;;;;;;;;;;;;;;;;4996355;28;19974;-61
2021/01/05 05:57:47;;;;;;;;;;;;;;;;;;4996348;28;19926;-61
2021/01/05 06:00:13;;;;;;;;;;;;;;;;;;4996350;28;19905;-61
2021/01/05 06:02:39;;;;;;;;;;;;;;;;;;4996524;28;19922;-61
2021/01/05 06:05:05;;;;;;;;;;;;;;;;;;4996206;28;20341;-61
2021/01/05 06:07:31;;;;;;;;;;;;;;;;;;4996419;28;19905;-60
2021/01/05 06:09:57;;;;;;;;;;;;;;;;;;4996262;28;19951;-60
2021/01/05 06:12:23;;;;;;;;;;;;;;;;;;4996034;28;20010;-61
2021/01/05 06:14:49;;;;;;;;;;;;;;;;;;4996000;28;20391;-61
2021/01/05 06:17:15;;;;;;;;;;;;;;;;;;4996315;28;19949;-61
2021/01/05 06:19:41;;;;;;;;;;;;;;;;;;4996253;28;20277;-61
2021/01/05 06:22:07;;;;;;;;;;;;;;;;;;4978297;28;19928;-61
2021/01/05 06:24:33;;;;;;;;;;;;;;;;;;4994859;28;19943;-62
2021/01/05 06:26:59;;;;;;;;;;;;;;;;;;4995832;28;19952;-62
2021/01/05 06:29:25;;;;;;;;;;;;;;;;;;4995737;28;19990;-61
2021/01/05 06:31:51;;;;;;;;;;;;;;;;;;4995908;28;20041;-61
2021/01/05 06:34:17;;;;;;;;;;;;;;;;;;4995544;28;20367;-61
2021/01/05 06:36:43;;;;;;;;;;;;;;;;;;4995554;28;20020;-62
2021/01/05 06:39:09;;;;;;;;;;;;;;;;;;4995540;28;19921;-61
2021/01/05 06:41:35;;;;;;;;;;;;;;;;;;4995458;28;20011;-61
2021/01/05 06:44:01;;;;;;;;;;;;;;;;;;4995970;28;19965;-61
2021/01/05 06:46:27;;;;;;;;;;;;;;;;;;4995214;28;20028;-60
2021/01/05 06:48:53;;;;;;;;;;;;;;;;;;4995662;28;20409;-61
2021/01/05 06:51:19;;;;;;;;;;;;;;;;;;4995377;28;20003;-61
2021/01/05 06:53:45;;;;;;;;;;;;;;;;;;4995182;28;19921;-61
2021/01/05 06:56:11;;;;;;;;;;;;;;;;;;4995219;28;19936;-62
2021/01/05 06:58:37;;;;;;;;;;;;;;;;;;4977784;28;20058;-61
2021/01/05 07:01:03;;;;;;;;;;;;;;;;;;4995196;28;20256;-61
2021/01/05 07:03:29;;;;;;;;;;;;;;;;;;4995066;28;19921;-61
2021/01/05 07:05:55;;;;;;;;;;;;;;;;;;4995166;28;19921;-61
2021/01/05 07:08:21;;;;;;;;;;;;;;;;;;4994286;28;19938;-61
2021/01/05 07:10:47;;;;;;;;;;;;;;;;;;4994933;28;20031;-61
2021/01/05 07:13:13;;;;;;;;;;;;;;;;;;4994949;28;19953;-62
2021/01/05 07:15:39;;;;;;;;;;;;;;;;;;4994830;28;19921;-61
2021/01/05 07:18:05;;;;;;;;;;;;;;;;;;4995245;28;19992;-62
2021/01/05 07:20:31;;;;;;;;;;;;;;;;;;4994912;28;20404;-62
2021/01/05 07:22:57;;;;;;;;;;;;;;;;;;4994784;28;19938;-62
2021/01/05 07:25:23;;;;;;;;;;;;;;;;;;4995236;28;19931;-61
2021/01/05 07:27:49;;;;;;;;;;;;;;;;;;4994568;28;20611;-61
2021/01/05 07:30:15;;;;;;;;;;;;;;;;;;4994626;28;19947;-61
2021/01/05 07:32:41;;;;;;;;;;;;;;;;;;4994612;28;19957;-62
2021/01/05 07:35:07;;;;;;;;;;;;;;;;;;4994565;28;19925;-60
2021/01/05 07:37:33;;;;;;;;;;;;;;;;;;4994799;28;19905;-60
2021/01/05 07:39:59;;;;;;;;;;;;;;;;;;4994885;28;20031;-61
2021/01/05 07:42:25;;;;;;;;;;;;;;;;;;4993993;28;19920;-62
2021/01/05 07:44:52;;;;;;;;;;;;;;;;;;4993323;28;20016;-60
2021/01/05 07:47:18;;;;;;;;;;;;;;;;;;4994156;28;20324;-59
2021/01/05 07:49:44;;;;;;;;;;;;;;;;;;4994577;28;19944;-59
2021/01/05 07:52:10;;;;;;;;;;;;;;;;;;4993830;28;19909;-61
2021/01/05 07:54:36;;;;;;;;;;;;;;;;;;4994373;28;20332;-60
2021/01/05 07:57:02;;;;;;;;;;;;;;;;;;4994694;28;19967;-60
2021/01/05 07:59:28;;;;;;;;;;;;;;;;;;4994156;28;19926;-60
2021/01/05 08:01:54;;;;;;;;;;;;;;;;;;4994390;28;20355;-60
2021/01/05 08:04:20;;;;;;;;;;;;;;;;;;4994261;28;19925;-60
2021/01/05 08:06:46;;;;;;;;;;;;;;;;;;4994348;28;19922;-60
2021/01/05 08:09:12;;;;;;;;;;;;;;;;;;4993625;28;19931;-59
2021/01/05 08:11:38;;;;;;;;;;;;;;;;;;4994015;28;19954;-59
2021/01/05 08:14:04;;;;;;;;;;;;;;;;;;4990984;28;20021;-59
2021/01/05 08:16:30;;;;;;;;;;;;;;;;;;4992961;28;19995;-60
2021/01/05 08:18:55;;;;;;;;;;;;;;;;;;4993709;28;19909;-60
2021/01/05 08:21:22;;;;;;;;;;;;;;;;;;4992961;28;19982;-60
2021/01/05 08:23:48;;;;;;;;;;;;;;;;;;4992351;28;19937;-58
2021/01/05 08:26:14;;;;;;;;;;;;;;;;;;4976644;28;19931;-59
2021/01/05 08:28:40;;;;;;;;;;;;;;;;;;4993599;28;19925;-59
2021/01/05 08:31:06;;;;;;;;;;;;;;;;;;4993985;28;19967;-58
2021/01/05 08:33:32;;;;;;;;;;;;;;;;;;4994159;28;19916;-58
2021/01/05 08:35:58;;;;;;;;;;;;;;;;;;4994171;28;19916;-59
2021/01/05 08:38:23;;;;;;;;;;;;;;;;;;4994006;28;20336;-60
2021/01/05 08:40:50;;;;;;;;;;;;;;;;;;4993659;28;19920;-58
2021/01/05 08:43:16;;;;;;;;;;;;;;;;;;4993704;28;19924;-59
2021/01/05 08:45:42;;;;;;;;;;;;;;;;;;4993097;28;19948;-58
2021/01/05 08:48:08;;;;;;;;;;;;;;;;;;4995506;28;19927;-60
2021/01/05 08:50:34;;;;;;;;;;;;;;;;;;4996806;28;20056;-60
2021/01/05 08:53:00;;;;;;;;;;;;;;;;;;4996524;28;20272;-59
2021/01/05 08:55:26;;;;;;;;;;;;;;;;;;4996943;28;19926;-59
2021/01/05 08:57:52;;;;;;;;;;;;;;;;;;4992777;28;20375;-58
2021/01/05 09:00:18;;;;;;;;;;;;;;;;;;4997162;28;19940;-59
2021/01/05 09:02:44;;;;;;;;;;;;;;;;;;4979525;28;19980;-61
2021/01/05 09:05:10;;;;;;;;;;;;;;;;;;4979918;28;20018;-59
2021/01/05 09:07:36;;;;;;;;;;;;;;;;;;4997375;28;19918;-60
2021/01/05 09:10:02;;;;;;;;;;;;;;;;;;4995953;28;19952;-59
2021/01/05 09:12:28;;;;;;;;;;;;;;;;;;4996639;28;20310;-58
2021/01/05 09:14:54;;;;;;;;;;;;;;;;;;4996662;28;19937;-58
2021/01/05 09:17:20;;;;;;;;;;;;;;;;;;4996718;28;19905;-59
2021/01/05 09:19:46;;;;;;;;;;;;;;;;;;4979416;28;19906;-60
2021/01/05 09:22:12;;;;;;;;;;;;;;;;;;4996944;28;19973;-59
2021/01/05 09:24:38;;;;;;;;;;;;;;;;;;4997125;28;19940;-58
2021/01/05 09:27:04;;;;;;;;;;;;;;;;;;4996965;28;20034;-60
2021/01/05 09:29:30;;;;;;;;;;;;;;;;;;4996600;28;19970;-58
2021/01/05 09:31:56;;;;;;;;;;;;;;;;;;4996784;28;19931;-59
2021/01/05 09:34:23;;;;;;;;;;;;;;;;;;4996443;28;20116;-59
2021/01/05 09:36:51;;;;;;;;;;;;;;;;;;4996540;28;19980;-60
2021/01/05 09:39:17;;;;;;;;;;;;;;;;;;4996068;28;20022;-58
2021/01/05 09:41:43;;;;;;;;;;;;;;;;;;4996079;28;19988;-58
2021/01/05 09:44:09;;;;;;;;;;;;;;;;;;4996401;28;19924;-58
2021/01/05 09:46:35;;;;;;;;;;;;;;;;;;4996187;28;20048;-60
2021/01/05 09:49:01;;;;;;;;;;;;;;;;;;4996526;28;19905;-60
2021/01/05 09:51:27;;;;;;;;;;;;;;;;;;4996047;28;19951;-60
2021/01/05 09:53:53;;;;;;;;;;;;;;;;;;4996843;28;19916;-60
2021/01/05 09:56:19;;;;;;;;;;;;;;;;;;4996331;28;19921;-59
2021/01/05 09:58:45;;;;;;;;;;;;;;;;;;4995343;28;19924;-60
2021/01/05 10:01:11;;;;;;;;;;;;;;;;;;4978424;28;19955;-61
2021/01/05 10:03:37;;;;;;;;;;;;;;;;;;4996403;28;20012;-61
2021/01/05 10:06:02;;;;;;;;;;;;;;;;;;4978607;28;20407;-60
2021/01/05 10:08:29;;;;;;;;;;;;;;;;;;4995921;28;19942;-59
2021/01/05 10:10:54;;;;;;;;;;;;;;;;;;4995114;28;20000;-59
2021/01/05 10:13:20;;;;;;;;;;;;;;;;;;4994310;28;19970;-60
2021/01/05 10:15:46;;;;;;;;;;;;;;;;;;4995396;28;19927;-60
2021/01/05 10:18:12;;;;;;;;;;;;;;;;;;4995718;28;19948;-61
2021/01/05 10:20:38;;;;;;;;;;;;;;;;;;4996212;28;20012;-62
2021/01/05 10:23:04;;;;;;;;;;;;;;;;;;4995169;28;20476;-61
2021/01/05 10:25:30;;;;;;;;;;;;;;;;;;4995757;28;19927;-61
2021/01/05 10:27:56;;;;;;;;;;;;;;;;;;4995604;28;19929;-62
2021/01/05 10:30:22;;;;;;;;;;;;;;;;;;4996045;28;19951;-61
2021/01/05 10:33:04;;;;;;;;;;;;;;;;;;5091572;28;19940;-62
2021/01/05 10:35:30;;;;;;;;;;;;;;;;;;5091390;28;19929;-62
2021/01/05 10:37:56;;;;;;;;;;;;;;;;;;5091103;28;19946;-62
2021/01/05 10:40:22;;;;;;;;;;;;;;;;;;5091573;28;19932;-62
2021/01/05 10:42:48;;;;;;;;;;;;;;;;;;5091332;28;19927;-62
2021/01/05 10:45:14;;;;;;;;;;;;;;;;;;5091130;28;20268;-62
2021/01/05 10:47:40;;;;;;;;;;;;;;;;;;5091291;28;19928;-62
2021/01/05 10:50:06;;;;;;;;;;;;;;;;;;5089731;28;19951;-62
2021/01/05 10:52:32;;;;;;;;;;;;;;;;;;5090887;28;19951;-62
2021/01/05 10:54:58;;;;;;;;;;;;;;;;;;5090967;28;19999;-62
2021/01/05 10:57:24;;;;;;;;;;;;;;;;;;5090886;28;19921;-62
2021/01/05 10:59:49;;;;;;;;;;;;;;;;;;5090884;28;19908;-63
2021/01/05 11:02:15;;;;;;;;;;;;;;;;;;5090413;28;19908;-62
2021/01/05 11:04:41;;;;;;;;;;;;;;;;;;5090918;28;19933;-63
2021/01/05 11:07:08;;;;;;;;;;;;;;;;;;5084796;28;19960;-61
2021/01/05 11:09:35;;;;;;;;;;;;;;;;;;5090733;28;20399;-62
2021/01/05 11:12:01;;;;;;;;;;;;;;;;;;5090931;28;20002;-62
2021/01/05 11:14:27;;;;;;;;;;;;;;;;;;5076539;28;19932;-62
2021/01/05 11:16:53;;;;;;;;;;;;;;;;;;5070277;28;20009;-60
2021/01/05 11:19:19;;;;;;;;;;;;;;;;;;5088033;28;19941;-62
2021/01/05 11:21:45;;;;;;;;;;;;;;;;;;5090443;28;19935;-62
2021/01/05 11:24:11;;;;;;;;;;;;;;;;;;5090716;28;20038;-62
2021/01/05 11:26:37;;;;;;;;;;;;;;;;;;5090196;28;20422;-61
2021/01/05 11:29:03;;;;;;;;;;;;;;;;;;5081985;28;19932;-62
2021/01/05 11:31:28;;;;;;;;;;;;;;;;;;5077163;28;20294;-62
2021/01/05 11:33:54;;;;;;;;;;;;;;;;;;5093460;28;19925;-61
2021/01/05 11:36:20;;;;;;;;;;;;;;;;;;5110475;28;20042;-63
2021/01/05 11:38:46;;;;;;;;;;;;;;;;;;5109705;28;19930;-61
2021/01/05 11:41:12;;;;;;;;;;;;;;;;;;5094358;28;20430;-61
2021/01/05 11:43:38;;;;;;;;;;;;;;;;;;5100132;28;19951;-62
2021/01/05 11:46:04;;;;;;;;;;;;;;;;;;5085256;28;19928;-60
2021/01/05 11:48:30;;;;;;;;;;;;;;;;;;5093830;28;20334;-60
2021/01/05 11:50:56;;;;;;;;;;;;;;;;;;5096126;28;19952;-61
2021/01/05 11:53:22;;;;;;;;;;;;;;;;;;5095354;28;19929;-61
2021/01/05 11:55:48;;;;;;;;;;;;;;;;;;5095989;28;19925;-62
2021/01/05 11:58:14;;;;;;;;;;;;;;;;;;5095865;28;19930;-60
2021/01/05 12:00:40;;;;;;;;;;;;;;;;;;5096561;28;20026;-62
2021/01/05 12:03:06;;;;;;;;;;;;;;;;;;5096645;28;19946;-62
2021/01/05 12:05:32;;;;;;;;;;;;;;;;;;5096336;28;19968;-62
2021/01/05 12:07:58;;;;;;;;;;;;;;;;;;5095627;28;19931;-62
2021/01/05 12:10:24;;;;;;;;;;;;;;;;;;5096065;28;20490;-63
2021/01/05 12:12:50;;;;;;;;;;;;;;;;;;5089815;28;19946;-63
2021/01/05 12:15:16;;;;;;;;;;;;;;;;;;5084167;28;19939;-62
2021/01/05 12:17:42;;;;;;;;;;;;;;;;;;5086976;28;19926;-63
2021/01/05 12:20:08;;;;;;;;;;;;;;;;;;5080537;28;19998;-62
2021/01/05 12:22:34;;;;;;;;;;;;;;;;;;5074539;28;19927;-62
2021/01/05 12:25:00;;;;;;;;;;;;;;;;;;5080866;28;19938;-62
2021/01/05 12:27:26;;;;;;;;;;;;;;;;;;5093584;28;19947;-62
2021/01/05 12:29:52;;;;;;;;;;;;;;;;;;5095779;28;19933;-62
2021/01/05 12:32:18;;;;;;;;;;;;;;;;;;5095606;28;19958;-63
2021/01/05 12:34:44;;;;;;;;;;;;;;;;;;5095989;28;19935;-62
2021/01/05 12:37:10;;;;;;;;;;;;;;;;;;5095776;28;20013;-62
2021/01/05 12:39:36;;;;;;;;;;;;;;;;;;5095878;28;20324;-62
2021/01/05 12:42:02;;;;;;;;;;;;;;;;;;5095914;28;19925;-62
2021/01/05 12:44:28;;;;;;;;;;;;;;;;;;5095931;28;19924;-62
2021/01/05 12:46:54;;;;;;;;;;;;;;;;;;5095552;28;20062;-62
2021/01/05 12:49:20;;;;;;;;;;;;;;;;;;5095464;28;19970;-62
2021/01/05 12:51:46;;;;;;;;;;;;;;;;;;5095428;28;20040;-62
2021/01/05 12:54:12;;;;;;;;;;;;;;;;;;5094723;28;19921;-61
2021/01/05 12:56:38;;;;;;;;;;;;;;;;;;5094601;28;20161;-61
2021/01/05 12:59:04;;;;;;;;;;;;;;;;;;5094325;28;19949;-61
2021/01/05 13:01:30;;;;;;;;;;;;;;;;;;5095688;28;19927;-61
2021/01/05 13:03:56;;;;;;;;;;;;;;;;;;5095285;28;19958;-61
2021/01/05 13:06:22;;;;;;;;;;;;;;;;;;5095148;28;19921;-62
2021/01/05 13:08:48;;;;;;;;;;;;;;;;;;5087117;28;20023;-62
2021/01/05 13:11:14;;;;;;;;;;;;;;;;;;5074986;28;19952;-62
2021/01/05 13:13:40;;;;;;;;;;;;;;;;;;5074870;28;20318;-63
2021/01/05 13:16:06;;;;;;;;;;;;;;;;;;5074963;28;19919;-62
2021/01/05 13:18:32;;;;;;;;;;;;;;;;;;5074796;28;19928;-63
2021/01/05 13:20:58;;;;;;;;;;;;;;;;;;5074590;28;20353;-63
2021/01/05 13:23:24;;;;;;;;;;;;;;;;;;5074616;28;19935;-63
2021/01/05 13:25:50;;;;;;;;;;;;;;;;;;5074700;28;19919;-63
2021/01/05 13:28:16;;;;;;;;;;;;;;;;;;5074590;28;19928;-63
2021/01/05 13:30:42;;;;;;;;;;;;;;;;;;5074326;28;19923;-63
2021/01/05 13:33:08;;;;;;;;;;;;;;;;;;5074539;28;20431;-63
2021/01/05 13:35:34;;;;;;;;;;;;;;;;;;5074360;28;19931;-62
2021/01/05 13:38:00;;;;;;;;;;;;;;;;;;5074361;28;19947;-47
2021/01/05 13:40:26;;;;;;;;;;;;;;;;;;5074321;28;20008;-63
2021/01/05 13:42:56;;;;;;;;;;;;;;;;;;5074470;28;19978;-63
2021/01/05 13:45:22;;;;;;;;;;;;;;;;;;5074438;28;19928;-62
2021/01/05 13:47:48;;;;;;;;;;;;;;;;;;5074390;28;20364;-62
2021/01/05 13:50:14;;;;;;;;;;;;;;;;;;5074091;28;20353;-62
2021/01/05 13:52:40;;;;;;;;;;;;;;;;;;5074172;28;19999;-62
2021/01/05 13:55:06;;;;;;;;;;;;;;;;;;5074275;28;19954;-62
2021/01/05 13:57:32;;;;;;;;;;;;;;;;;;5074142;28;20367;-62
2021/01/05 13:59:58;;;;;;;;;;;;;;;;;;5073192;28;19927;-62
2021/01/05 14:02:24;;;;;;;;;;;;;;;;;;5074007;28;20302;-62
2021/01/05 14:04:50;;;;;;;;;;;;;;;;;;5074010;28;19933;-61
2021/01/05 14:07:16;;;;;;;;;;;;;;;;;;5073744;28;19930;-63
2021/01/05 14:09:42;;;;;;;;;;;;;;;;;;5074227;28;20384;-63
2021/01/05 14:12:08;;;;;;;;;;;;;;;;;;5073748;28;19957;-62
2021/01/05 14:14:34;;;;;;;;;;;;;;;;;;5073883;28;19908;-61
2021/01/05 14:17:00;;;;;;;;;;;;;;;;;;5072567;28;19956;-62
2021/01/05 14:19:26;;;;;;;;;;;;;;;;;;5073797;28;20015;-62
2021/01/05 14:21:52;;;;;;;;;;;;;;;;;;5073842;28;20382;-61
2021/01/05 14:24:18;;;;;;;;;;;;;;;;;;5082723;28;20041;-60
2021/01/05 14:26:44;;;;;;;;;;;;;;;;;;5087716;28;19925;-62
2021/01/05 14:29:10;;;;;;;;;;;;;;;;;;5073494;28;19934;-61
2021/01/05 14:31:36;;;;;;;;;;;;;;;;;;5073319;28;19959;-62
2021/01/05 14:34:02;;;;;;;;;;;;;;;;;;5073543;28;20299;-61
2021/01/05 14:36:28;;;;;;;;;;;;;;;;;;5073369;28;19924;-61
2021/01/05 14:38:54;;;;;;;;;;;;;;;;;;5073608;28;20378;-60
2021/01/05 14:41:20;;;;;;;;;;;;;;;;;;5072239;28;19933;-61
2021/01/05 14:43:46;;;;;;;;;;;;;;;;;;5073853;28;19925;-61
2021/01/05 14:46:12;;;;;;;;;;;;;;;;;;5074044;28;20331;-62
2021/01/05 14:48:38;;;;;;;;;;;;;;;;;;5073461;28;19933;-60
2021/01/05 14:51:04;;;;;;;;;;;;;;;;;;5072059;28;19994;-61
2021/01/05 14:53:30;;;;;;;;;;;;;;;;;;5075940;28;19923;-61
2021/01/05 14:55:56;;;;;;;;;;;;;;;;;;5087359;28;19960;-61
2021/01/05 14:58:22;;;;;;;;;;;;;;;;;;5078616;28;20444;-60
2021/01/05 15:00:48;;;;;;;;;;;;;;;;;;5073680;28;19923;-61
2021/01/05 15:03:14;;;;;;;;;;;;;;;;;;5073495;28;19950;-62
2021/01/05 15:05:40;;;;;;;;;;;;;;;;;;5073391;28;19924;-62
2021/01/05 15:08:06;;;;;;;;;;;;;;;;;;5073128;28;20352;-62
2021/01/05 15:10:32;;;;;;;;;;;;;;;;;;5073374;28;19926;-65
2021/01/05 15:12:58;;;;;;;;;;;;;;;;;;5073134;28;19956;-64
2021/01/05 15:15:24;;;;;;;;;;;;;;;;;;5073489;28;20388;-65
2021/01/05 15:17:50;;;;;;;;;;;;;;;;;;5073704;28;19923;-65
2021/01/05 15:20:16;;;;;;;;;;;;;;;;;;5077079;28;20293;-65
2021/01/05 15:22:42;;;;;;;;;;;;;;;;;;5079110;28;20035;-65
2021/01/05 15:25:08;;;;;;;;;;;;;;;;;;5076676;28;20426;-65
2021/01/05 15:27:35;;;;;;;;;;;;;;;;;;5078984;28;19925;-65
2021/01/05 15:30:01;;;;;;;;;;;;;;;;;;5095796;28;19954;-65
2021/01/05 15:32:27;;;;;;;;;;;;;;;;;;5095588;28;19964;-66
2021/01/05 15:34:53;;;;;;;;;;;;;;;;;;5095990;28;20017;-66
2021/01/05 15:37:19;;;;;;;;;;;;;;;;;;5096136;28;19918;-66
2021/01/05 15:39:45;;;;;;;;;;;;;;;;;;5097114;28;19953;-66
2021/01/05 15:42:11;;;;;;;;;;;;;;;;;;5096910;28;20017;-66
2021/01/05 15:44:37;;;;;;;;;;;;;;;;;;5097313;28;19923;-66
2021/01/05 15:47:03;;;;;;;;;;;;;;;;;;5096782;28;20265;-66
2021/01/05 15:49:30;;;;;;;;;;;;;;;;;;5095434;28;19923;-66
2021/01/05 15:51:56;;;;;;;;;;;;;;;;;;5096560;28;20047;-66
2021/01/05 15:54:22;;;;;;;;;;;;;;;;;;5096802;28;20013;-66
2021/01/05 15:56:48;;;;;;;;;;;;;;;;;;5096957;28;19922;-66
2021/01/05 15:59:14;;;;;;;;;;;;;;;;;;5096568;28;19919;-66
2021/01/05 16:01:40;;;;;;;;;;;;;;;;;;5096764;28;19923;-66
2021/01/05 16:04:06;;;;;;;;;;;;;;;;;;5096637;28;19982;-66
2021/01/05 16:06:32;;;;;;;;;;;;;;;;;;5096446;28;20262;-66
2021/01/05 16:09:00;;;;;;;;;;;;;;;;;;5096457;28;19974;-66
2021/01/05 16:11:26;;;;;;;;;;;;;;;;;;5096479;28;19912;-66
2021/01/05 16:13:52;;;;;;;;;;;;;;;;;;5096174;28;20274;-66
2021/01/05 16:16:18;;;;;;;;;;;;;;;;;;5096235;28;19961;-66
2021/01/05 16:18:44;;;;;;;;;;;;;;;;;;5096397;28;19931;-66
2021/01/05 16:21:10;;;;;;;;;;;;;;;;;;5096098;28;19921;-66
2021/01/05 16:23:36;;;;;;;;;;;;;;;;;;5095981;28;19944;-66
2021/01/05 16:26:02;;;;;;;;;;;;;;;;;;5096046;28;20295;-66
2021/01/05 16:28:28;;;;;;;;;;;;;;;;;;5095076;28;20009;-66
2021/01/05 16:30:54;;;;;;;;;;;;;;;;;;5095427;28;19952;-65
2021/01/05 16:33:20;;;;;;;;;;;;;;;;;;5095903;28;19921;-65
2021/01/05 16:35:46;;;;;;;;;;;;;;;;;;5095767;28;19964;-66